sensor_id;sensor_type;location;lat;lon;timestamp;temperature;humidity
18361;SHT31;9308;48.550;9.108;2022-09-20T00:00:48;8.41;78.36
18361;SHT31;9308;48.550;9.108;2022-09-20T00:03:15;8.42;78.49
18361;SHT31;9308;48.550;9.108;2022-09-20T00:05:42;8.48;78.16
18361;SHT31;9308;48.550;9.108;2022-09-20T00:08:12;8.53;77.91
18361;SHT31;9308;48.550;9.108;2022-09-20T00:10:39;8.29;78.21
18361;SHT31;9308;48.550;9.108;2022-09-20T00:13:06;8.41;77.99
18361;SHT31;9308;48.550;9.108;2022-09-20T00:15:32;8.31;77.76
18361;SHT31;9308;48.550;9.108;2022-09-20T00:17:58;8.42;77.57
18361;SHT31;9308;48.550;9.108;2022-09-20T00:20:24;8.21;78.39
18361;SHT31;9308;48.550;9.108;2022-09-20T00:22:51;8.22;78.58
18361;SHT31;9308;48.550;9.108;2022-09-20T00:25:18;8.28;78.23
18361;SHT31;9308;48.550;9.108;2022-09-20T00:27:44;8.39;78.82
18361;SHT31;9308;48.550;9.108;2022-09-20T00:30:11;8.46;78.19
18361;SHT31;9308;48.550;9.108;2022-09-20T00:32:37;8.35;78.66
18361;SHT31;9308;48.550;9.108;2022-09-20T00:35:03;8.50;78.19
18361;SHT31;9308;48.550;9.108;2022-09-20T00:37:33;8.55;78.05
18361;SHT31;9308;48.550;9.108;2022-09-20T00:39:58;8.41;78.27
18361;SHT31;9308;48.550;9.108;2022-09-20T00:42:29;8.28;78.61
18361;SHT31;9308;48.550;9.108;2022-09-20T00:44:58;8.21;78.56
18361;SHT31;9308;48.550;9.108;2022-09-20T00:47:32;8.20;78.19
18361;SHT31;9308;48.550;9.108;2022-09-20T00:53:19;8.27;77.99
18361;SHT31;9308;48.550;9.108;2022-09-20T00:55:52;8.27;77.92
18361;SHT31;9308;48.550;9.108;2022-09-20T00:58:20;8.29;77.45
18361;SHT31;9308;48.550;9.108;2022-09-20T01:00:47;8.17;77.47
18361;SHT31;9308;48.550;9.108;2022-09-20T01:03:15;8.08;77.93
18361;SHT31;9308;48.550;9.108;2022-09-20T01:05:42;8.11;77.67
18361;SHT31;9308;48.550;9.108;2022-09-20T01:08:09;8.11;77.33
18361;SHT31;9308;48.550;9.108;2022-09-20T01:10:35;8.06;77.72
18361;SHT31;9308;48.550;9.108;2022-09-20T01:13:01;7.91;77.78
18361;SHT31;9308;48.550;9.108;2022-09-20T01:15:28;7.79;78.06
18361;SHT31;9308;48.550;9.108;2022-09-20T01:17:57;7.91;77.87
18361;SHT31;9308;48.550;9.108;2022-09-20T01:20:26;7.93;77.89
18361;SHT31;9308;48.550;9.108;2022-09-20T01:23:05;7.82;78.54
18361;SHT31;9308;48.550;9.108;2022-09-20T01:26:10;7.87;78.18
18361;SHT31;9308;48.550;9.108;2022-09-20T01:28:43;7.96;77.98
18361;SHT31;9308;48.550;9.108;2022-09-20T01:31:25;7.87;78.25
18361;SHT31;9308;48.550;9.108;2022-09-20T01:34:00;7.78;78.31
18361;SHT31;9308;48.550;9.108;2022-09-20T01:36:53;7.66;78.56
18361;SHT31;9308;48.550;9.108;2022-09-20T01:39:31;7.66;78.50
18361;SHT31;9308;48.550;9.108;2022-09-20T01:42:04;7.61;78.22
18361;SHT31;9308;48.550;9.108;2022-09-20T01:44:54;7.70;78.31
18361;SHT31;9308;48.550;9.108;2022-09-20T01:47:40;7.76;78.14
18361;SHT31;9308;48.550;9.108;2022-09-20T02:04:09;8.37;77.98
18361;SHT31;9308;48.550;9.108;2022-09-20T02:12:31;8.60;78.12
18361;SHT31;9308;48.550;9.108;2022-09-20T02:23:54;8.62;78.46
18361;SHT31;9308;48.550;9.108;2022-09-20T02:28:54;8.60;78.98
18361;SHT31;9308;48.550;9.108;2022-09-20T02:31:41;8.69;78.72
18361;SHT31;9308;48.550;9.108;2022-09-20T02:40:05;8.56;78.83
18361;SHT31;9308;48.550;9.108;2022-09-20T02:42:40;8.55;78.83
18361;SHT31;9308;48.550;9.108;2022-09-20T02:45:25;8.46;78.68
18361;SHT31;9308;48.550;9.108;2022-09-20T02:47:52;8.53;78.43
18361;SHT31;9308;48.550;9.108;2022-09-20T02:50:55;8.48;78.54
18361;SHT31;9308;48.550;9.108;2022-09-20T02:53:47;8.45;78.21
18361;SHT31;9308;48.550;9.108;2022-09-20T03:05:10;8.22;78.13
18361;SHT31;9308;48.550;9.108;2022-09-20T03:08:00;8.25;78.30
18361;SHT31;9308;48.550;9.108;2022-09-20T03:10:38;8.10;77.91
18361;SHT31;9308;48.550;9.108;2022-09-20T03:21:21;7.99;78.10
18361;SHT31;9308;48.550;9.108;2022-09-20T03:30:00;7.66;78.76
18361;SHT31;9308;48.550;9.108;2022-09-20T03:40:28;8.06;77.80
18361;SHT31;9308;48.550;9.108;2022-09-20T03:43:04;8.14;77.40
18361;SHT31;9308;48.550;9.108;2022-09-20T03:45:44;7.96;77.96
18361;SHT31;9308;48.550;9.108;2022-09-20T03:48:34;8.11;78.12
18361;SHT31;9308;48.550;9.108;2022-09-20T03:51:16;8.37;77.72
18361;SHT31;9308;48.550;9.108;2022-09-20T03:54:13;8.38;77.78
18361;SHT31;9308;48.550;9.108;2022-09-20T04:05:14;8.55;78.06
18361;SHT31;9308;48.550;9.108;2022-09-20T04:08:14;8.62;78.29
18361;SHT31;9308;48.550;9.108;2022-09-20T04:10:56;8.70;78.02
18361;SHT31;9308;48.550;9.108;2022-09-20T04:18:56;8.79;78.36
18361;SHT31;9308;48.550;9.108;2022-09-20T04:21:31;8.92;78.26
18361;SHT31;9308;48.550;9.108;2022-09-20T04:24:10;8.90;78.01
18361;SHT31;9308;48.550;9.108;2022-09-20T04:32:59;8.99;77.83
18361;SHT31;9308;48.550;9.108;2022-09-20T04:35:24;8.90;77.53
18361;SHT31;9308;48.550;9.108;2022-09-20T04:38:17;8.96;77.89
18361;SHT31;9308;48.550;9.108;2022-09-20T04:47:24;9.00;76.99
18361;SHT31;9308;48.550;9.108;2022-09-20T04:56:00;8.75;77.72
18361;SHT31;9308;48.550;9.108;2022-09-20T05:04:23;8.96;77.55
18361;SHT31;9308;48.550;9.108;2022-09-20T05:12:51;9.24;76.96
18361;SHT31;9308;48.550;9.108;2022-09-20T05:18:52;9.63;75.74
18361;SHT31;9308;48.550;9.108;2022-09-20T05:21:46;9.24;76.09
18361;SHT31;9308;48.550;9.108;2022-09-20T05:35:25;9.67;76.23
18361;SHT31;9308;48.550;9.108;2022-09-20T05:43:53;9.63;75.63
18361;SHT31;9308;48.550;9.108;2022-09-20T05:46:34;9.63;75.94
18361;SHT31;9308;48.550;9.108;2022-09-20T05:49:24;9.62;76.10
18361;SHT31;9308;48.550;9.108;2022-09-20T05:52:02;9.71;76.12
18361;SHT31;9308;48.550;9.108;2022-09-20T05:54:52;9.80;75.48
18361;SHT31;9308;48.550;9.108;2022-09-20T05:57:38;9.56;76.76
18361;SHT31;9308;48.550;9.108;2022-09-20T06:06:09;9.90;75.85
18361;SHT31;9308;48.550;9.108;2022-09-20T06:17:21;9.94;76.42
18361;SHT31;9308;48.550;9.108;2022-09-20T06:22:50;10.07;75.91
18361;SHT31;9308;48.550;9.108;2022-09-20T06:25:27;10.08;76.30
18361;SHT31;9308;48.550;9.108;2022-09-20T06:28:15;10.15;75.27
18361;SHT31;9308;48.550;9.108;2022-09-20T06:30:47;10.07;74.96
18361;SHT31;9308;48.550;9.108;2022-09-20T06:33:24;9.85;74.74
18361;SHT31;9308;48.550;9.108;2022-09-20T06:38:56;9.85;75.82
18361;SHT31;9308;48.550;9.108;2022-09-20T06:41:43;10.25;74.89
18361;SHT31;9308;48.550;9.108;2022-09-20T06:44:09;9.87;74.45
18361;SHT31;9308;48.550;9.108;2022-09-20T06:46:35;10.22;75.52
18361;SHT31;9308;48.550;9.108;2022-09-20T06:49:03;10.25;75.30
18361;SHT31;9308;48.550;9.108;2022-09-20T06:51:33;10.89;74.34
18361;SHT31;9308;48.550;9.108;2022-09-20T06:54:00;11.12;73.80
18361;SHT31;9308;48.550;9.108;2022-09-20T06:56:28;11.07;74.05
18361;SHT31;9308;48.550;9.108;2022-09-20T06:58:55;11.22;73.63
18361;SHT31;9308;48.550;9.108;2022-09-20T07:01:21;11.41;73.04
18361;SHT31;9308;48.550;9.108;2022-09-20T07:03:46;11.96;71.34
18361;SHT31;9308;48.550;9.108;2022-09-20T07:06:13;11.54;72.19
18361;SHT31;9308;48.550;9.108;2022-09-20T07:08:44;11.75;72.34
18361;SHT31;9308;48.550;9.108;2022-09-20T07:11:15;11.83;71.57
18361;SHT31;9308;48.550;9.108;2022-09-20T07:13:42;11.93;71.70
18361;SHT31;9308;48.550;9.108;2022-09-20T07:16:10;11.96;72.20
18361;SHT31;9308;48.550;9.108;2022-09-20T07:18:36;11.85;72.44
18361;SHT31;9308;48.550;9.108;2022-09-20T07:21:02;11.85;72.26
18361;SHT31;9308;48.550;9.108;2022-09-20T07:23:29;12.05;71.27
18361;SHT31;9308;48.550;9.108;2022-09-20T07:25:55;12.31;69.59
18361;SHT31;9308;48.550;9.108;2022-09-20T07:28:30;12.08;70.40
18361;SHT31;9308;48.550;9.108;2022-09-20T07:30:56;12.08;71.00
18361;SHT31;9308;48.550;9.108;2022-09-20T07:33:21;12.23;70.55
18361;SHT31;9308;48.550;9.108;2022-09-20T07:35:49;12.32;70.21
18361;SHT31;9308;48.550;9.108;2022-09-20T07:38:16;12.34;70.52
18361;SHT31;9308;48.550;9.108;2022-09-20T07:40:42;12.16;70.48
18361;SHT31;9308;48.550;9.108;2022-09-20T07:43:09;12.34;70.36
18361;SHT31;9308;48.550;9.108;2022-09-20T07:45:35;12.11;71.36
18361;SHT31;9308;48.550;9.108;2022-09-20T07:48:03;12.13;71.09
18361;SHT31;9308;48.550;9.108;2022-09-20T07:50:30;12.49;71.32
18361;SHT31;9308;48.550;9.108;2022-09-20T07:52:56;12.79;69.52
18361;SHT31;9308;48.550;9.108;2022-09-20T07:55:22;12.72;70.45
18361;SHT31;9308;48.550;9.108;2022-09-20T07:57:48;12.34;71.54
18361;SHT31;9308;48.550;9.108;2022-09-20T08:00:13;12.62;70.64
18361;SHT31;9308;48.550;9.108;2022-09-20T08:02:39;12.83;70.12
18361;SHT31;9308;48.550;9.108;2022-09-20T08:05:05;12.69;69.98
18361;SHT31;9308;48.550;9.108;2022-09-20T08:07:30;12.87;69.97
18361;SHT31;9308;48.550;9.108;2022-09-20T08:09:56;12.79;69.30
18361;SHT31;9308;48.550;9.108;2022-09-20T08:12:21;12.81;70.41
18361;SHT31;9308;48.550;9.108;2022-09-20T08:14:47;12.79;69.74
18361;SHT31;9308;48.550;9.108;2022-09-20T08:17:13;13.28;68.59
18361;SHT31;9308;48.550;9.108;2022-09-20T08:19:38;13.23;68.52
18361;SHT31;9308;48.550;9.108;2022-09-20T08:22:05;13.04;68.96
18361;SHT31;9308;48.550;9.108;2022-09-20T08:24:31;13.45;69.04
18361;SHT31;9308;48.550;9.108;2022-09-20T08:26:57;13.82;67.45
18361;SHT31;9308;48.550;9.108;2022-09-20T08:29:24;13.38;68.88
18361;SHT31;9308;48.550;9.108;2022-09-20T08:31:49;13.83;67.68
18361;SHT31;9308;48.550;9.108;2022-09-20T08:34:16;13.99;67.30
18361;SHT31;9308;48.550;9.108;2022-09-20T08:36:44;13.82;67.53
18361;SHT31;9308;48.550;9.108;2022-09-20T08:39:16;14.18;67.51
18361;SHT31;9308;48.550;9.108;2022-09-20T08:41:47;14.34;66.94
18361;SHT31;9308;48.550;9.108;2022-09-20T08:44:25;14.48;65.82
18361;SHT31;9308;48.550;9.108;2022-09-20T08:49:28;14.54;65.84
18361;SHT31;9308;48.550;9.108;2022-09-20T08:51:55;14.80;64.34
18361;SHT31;9308;48.550;9.108;2022-09-20T08:54:24;15.00;65.57
18361;SHT31;9308;48.550;9.108;2022-09-20T08:56:50;15.02;65.33
18361;SHT31;9308;48.550;9.108;2022-09-20T08:59:21;15.08;64.29
18361;SHT31;9308;48.550;9.108;2022-09-20T09:01:49;15.13;63.63
18361;SHT31;9308;48.550;9.108;2022-09-20T09:04:18;15.94;62.22
18361;SHT31;9308;48.550;9.108;2022-09-20T09:06:46;16.73;61.16
18361;SHT31;9308;48.550;9.108;2022-09-20T09:11:42;17.47;56.59
18361;SHT31;9308;48.550;9.108;2022-09-20T09:14:22;17.81;56.74
18361;SHT31;9308;48.550;9.108;2022-09-20T09:17:09;17.78;56.03
18361;SHT31;9308;48.550;9.108;2022-09-20T09:19:45;18.02;54.44
18361;SHT31;9308;48.550;9.108;2022-09-20T09:22:10;17.78;55.91
18361;SHT31;9308;48.550;9.108;2022-09-20T09:24:41;18.03;54.53
18361;SHT31;9308;48.550;9.108;2022-09-20T09:27:14;17.59;53.05
18361;SHT31;9308;48.550;9.108;2022-09-20T09:29:49;17.61;51.97
18361;SHT31;9308;48.550;9.108;2022-09-20T09:32:28;18.48;51.73
18361;SHT31;9308;48.550;9.108;2022-09-20T09:34:56;19.17;49.07
18361;SHT31;9308;48.550;9.108;2022-09-20T09:37:33;19.68;46.02
18361;SHT31;9308;48.550;9.108;2022-09-20T09:40:13;20.41;46.16
18361;SHT31;9308;48.550;9.108;2022-09-20T09:43:02;20.91;43.82
18361;SHT31;9308;48.550;9.108;2022-09-20T09:45:33;20.24;44.85
18361;SHT31;9308;48.550;9.108;2022-09-20T09:48:22;20.57;46.94
18361;SHT31;9308;48.550;9.108;2022-09-20T09:50:49;19.16;46.62
18361;SHT31;9308;48.550;9.108;2022-09-20T09:53:20;18.24;46.32
18361;SHT31;9308;48.550;9.108;2022-09-20T09:56:11;17.47;48.78
18361;SHT31;9308;48.550;9.108;2022-09-20T09:58:52;17.47;52.30
18361;SHT31;9308;48.550;9.108;2022-09-20T10:04:36;16.44;54.21
18361;SHT31;9308;48.550;9.108;2022-09-20T10:07:13;16.21;54.06
18361;SHT31;9308;48.550;9.108;2022-09-20T10:12:59;15.55;53.17
18361;SHT31;9308;48.550;9.108;2022-09-20T10:15:44;15.58;54.87
18361;SHT31;9308;48.550;9.108;2022-09-20T10:18:38;15.93;56.10
18361;SHT31;9308;48.550;9.108;2022-09-20T10:26:29;15.99;55.63
18361;SHT31;9308;48.550;9.108;2022-09-20T10:34:41;16.03;53.98
18361;SHT31;9308;48.550;9.108;2022-09-20T10:40:11;17.34;51.62
18361;SHT31;9308;48.550;9.108;2022-09-20T10:42:55;17.68;49.80
18361;SHT31;9308;48.550;9.108;2022-09-20T10:48:42;17.19;52.05
18361;SHT31;9308;48.550;9.108;2022-09-20T10:51:53;16.26;51.35
18361;SHT31;9308;48.550;9.108;2022-09-20T10:54:47;16.73;53.26
18361;SHT31;9308;48.550;9.108;2022-09-20T11:00:29;19.95;45.45
18361;SHT31;9308;48.550;9.108;2022-09-20T11:06:14;17.81;48.64
18361;SHT31;9308;48.550;9.108;2022-09-20T11:08:43;17.45;49.62
18361;SHT31;9308;48.550;9.108;2022-09-20T11:11:27;16.98;50.79
18361;SHT31;9308;48.550;9.108;2022-09-20T11:14:09;16.58;52.13
18361;SHT31;9308;48.550;9.108;2022-09-20T11:16:40;16.35;51.34
18361;SHT31;9308;48.550;9.108;2022-09-20T11:19:20;16.65;51.89
18361;SHT31;9308;48.550;9.108;2022-09-20T11:21:56;16.41;51.69
18361;SHT31;9308;48.550;9.108;2022-09-20T11:24:31;19.26;46.95
18361;SHT31;9308;48.550;9.108;2022-09-20T11:27:03;17.78;48.56
18361;SHT31;9308;48.550;9.108;2022-09-20T11:29:39;18.05;48.22
18361;SHT31;9308;48.550;9.108;2022-09-20T11:35:01;20.51;44.37
18361;SHT31;9308;48.550;9.108;2022-09-20T11:37:32;19.10;44.79
18361;SHT31;9308;48.550;9.108;2022-09-20T11:40:24;17.96;48.54
18361;SHT31;9308;48.550;9.108;2022-09-20T11:42:51;17.27;49.21
18361;SHT31;9308;48.550;9.108;2022-09-20T11:45:18;17.06;50.05
18361;SHT31;9308;48.550;9.108;2022-09-20T11:47:47;16.31;51.49
18361;SHT31;9308;48.550;9.108;2022-09-20T11:55:56;16.82;49.81
18361;SHT31;9308;48.550;9.108;2022-09-20T11:58:26;17.17;50.17
18361;SHT31;9308;48.550;9.108;2022-09-20T12:00:54;17.11;50.77
18361;SHT31;9308;48.550;9.108;2022-09-20T12:03:37;17.74;49.01
18361;SHT31;9308;48.550;9.108;2022-09-20T12:06:18;17.34;47.58
18361;SHT31;9308;48.550;9.108;2022-09-20T12:08:49;18.71;46.53
18361;SHT31;9308;48.550;9.108;2022-09-20T12:11:15;19.10;47.14
18361;SHT31;9308;48.550;9.108;2022-09-20T12:13:52;20.26;44.61
18361;SHT31;9308;48.550;9.108;2022-09-20T12:16:40;19.22;44.28
18361;SHT31;9308;48.550;9.108;2022-09-20T12:19:14;19.82;45.45
18361;SHT31;9308;48.550;9.108;2022-09-20T12:24:28;21.07;40.90
18361;SHT31;9308;48.550;9.108;2022-09-20T12:43:26;18.62;44.86
18361;SHT31;9308;48.550;9.108;2022-09-20T12:45:55;18.31;45.63
18361;SHT31;9308;48.550;9.108;2022-09-20T12:48:21;18.71;46.73
18361;SHT31;9308;48.550;9.108;2022-09-20T12:51:23;18.92;47.18
18361;SHT31;9308;48.550;9.108;2022-09-20T12:54:10;18.61;47.33
18361;SHT31;9308;48.550;9.108;2022-09-20T12:56:38;18.62;44.62
18361;SHT31;9308;48.550;9.108;2022-09-20T12:59:05;18.81;45.75
18361;SHT31;9308;48.550;9.108;2022-09-20T13:01:42;18.17;44.93
18361;SHT31;9308;48.550;9.108;2022-09-20T13:07:34;18.51;44.07
18361;SHT31;9308;48.550;9.108;2022-09-20T13:10:21;19.02;43.66
18361;SHT31;9308;48.550;9.108;2022-09-20T13:12:50;19.19;42.80
18361;SHT31;9308;48.550;9.108;2022-09-20T13:15:18;19.57;41.55
18361;SHT31;9308;48.550;9.108;2022-09-20T13:17:45;19.22;43.57
18361;SHT31;9308;48.550;9.108;2022-09-20T13:20:19;19.55;42.72
18361;SHT31;9308;48.550;9.108;2022-09-20T13:22:46;19.51;40.37
18361;SHT31;9308;48.550;9.108;2022-09-20T13:25:14;19.14;41.88
18361;SHT31;9308;48.550;9.108;2022-09-20T13:27:53;19.44;41.61
18361;SHT31;9308;48.550;9.108;2022-09-20T13:32:47;21.40;39.90
18361;SHT31;9308;48.550;9.108;2022-09-20T13:35:15;20.48;39.68
18361;SHT31;9308;48.550;9.108;2022-09-20T13:37:52;21.05;39.37
18361;SHT31;9308;48.550;9.108;2022-09-20T13:40:22;21.39;38.98
18361;SHT31;9308;48.550;9.108;2022-09-20T13:42:50;20.41;38.28
18361;SHT31;9308;48.550;9.108;2022-09-20T13:45:17;20.17;36.50
18361;SHT31;9308;48.550;9.108;2022-09-20T13:47:47;22.47;33.32
18361;SHT31;9308;48.550;9.108;2022-09-20T13:52:48;20.06;38.08
18361;SHT31;9308;48.550;9.108;2022-09-20T13:57:53;18.60;40.48
18361;SHT31;9308;48.550;9.108;2022-09-20T14:00:21;18.79;39.63
18361;SHT31;9308;48.550;9.108;2022-09-20T14:02:48;18.03;40.96
18361;SHT31;9308;48.550;9.108;2022-09-20T14:05:17;18.47;40.50
18361;SHT31;9308;48.550;9.108;2022-09-20T14:07:45;18.81;40.51
18361;SHT31;9308;48.550;9.108;2022-09-20T14:12:59;18.27;42.54
18361;SHT31;9308;48.550;9.108;2022-09-20T14:15:30;18.21;41.91
18361;SHT31;9308;48.550;9.108;2022-09-20T14:17:56;18.12;42.46
18361;SHT31;9308;48.550;9.108;2022-09-20T14:20:22;17.59;43.30
18361;SHT31;9308;48.550;9.108;2022-09-20T14:22:48;17.35;44.42
18361;SHT31;9308;48.550;9.108;2022-09-20T14:27:39;16.82;44.92
18361;SHT31;9308;48.550;9.108;2022-09-20T14:30:05;16.99;45.65
18361;SHT31;9308;48.550;9.108;2022-09-20T14:32:37;17.19;45.09
18361;SHT31;9308;48.550;9.108;2022-09-20T14:35:17;16.86;45.15
18361;SHT31;9308;48.550;9.108;2022-09-20T14:37:52;17.21;44.46
18361;SHT31;9308;48.550;9.108;2022-09-20T14:45:34;16.56;46.74
18361;SHT31;9308;48.550;9.108;2022-09-20T14:50:38;16.86;46.14
18361;SHT31;9308;48.550;9.108;2022-09-20T14:53:19;16.76;45.59
18361;SHT31;9308;48.550;9.108;2022-09-20T14:58:22;16.41;47.57
18361;SHT31;9308;48.550;9.108;2022-09-20T15:01:17;16.83;47.11
18361;SHT31;9308;48.550;9.108;2022-09-20T15:03:47;16.49;48.31
18361;SHT31;9308;48.550;9.108;2022-09-20T15:06:13;16.20;49.60
18361;SHT31;9308;48.550;9.108;2022-09-20T15:08:39;15.96;49.57
18361;SHT31;9308;48.550;9.108;2022-09-20T15:11:05;16.07;49.16
18361;SHT31;9308;48.550;9.108;2022-09-20T15:13:31;16.16;50.08
18361;SHT31;9308;48.550;9.108;2022-09-20T15:15:57;15.69;51.17
18361;SHT31;9308;48.550;9.108;2022-09-20T15:18:25;15.72;50.26
18361;SHT31;9308;48.550;9.108;2022-09-20T15:20:53;15.80;49.98
18361;SHT31;9308;48.550;9.108;2022-09-20T15:23:19;16.01;49.85
18361;SHT31;9308;48.550;9.108;2022-09-20T15:25:49;16.10;50.13
18361;SHT31;9308;48.550;9.108;2022-09-20T15:28:16;16.69;48.39
18361;SHT31;9308;48.550;9.108;2022-09-20T15:30:43;16.95;48.53
18361;SHT31;9308;48.550;9.108;2022-09-20T15:33:09;16.44;50.29
18361;SHT31;9308;48.550;9.108;2022-09-20T15:35:36;17.06;50.14
18361;SHT31;9308;48.550;9.108;2022-09-20T15:38:02;17.37;48.12
18361;SHT31;9308;48.550;9.108;2022-09-20T15:40:27;16.96;48.11
18361;SHT31;9308;48.550;9.108;2022-09-20T15:42:56;17.24;48.39
18361;SHT31;9308;48.550;9.108;2022-09-20T15:45:24;17.20;46.99
18361;SHT31;9308;48.550;9.108;2022-09-20T15:47:51;16.65;46.63
18361;SHT31;9308;48.550;9.108;2022-09-20T15:50:20;16.59;46.73
18361;SHT31;9308;48.550;9.108;2022-09-20T15:52:47;16.41;48.25
18361;SHT31;9308;48.550;9.108;2022-09-20T15:55:16;16.20;49.46
18361;SHT31;9308;48.550;9.108;2022-09-20T15:57:42;15.79;50.72
18361;SHT31;9308;48.550;9.108;2022-09-20T16:00:08;15.80;49.77
18361;SHT31;9308;48.550;9.108;2022-09-20T16:02:33;15.75;50.23
18361;SHT31;9308;48.550;9.108;2022-09-20T16:04:59;15.85;50.57
18361;SHT31;9308;48.550;9.108;2022-09-20T16:07:25;15.68;50.84
18361;SHT31;9308;48.550;9.108;2022-09-20T16:09:52;15.50;50.13
18361;SHT31;9308;48.550;9.108;2022-09-20T16:12:18;16.05;49.27
18361;SHT31;9308;48.550;9.108;2022-09-20T16:14:44;16.03;48.97
18361;SHT31;9308;48.550;9.108;2022-09-20T16:17:09;16.17;48.71
18361;SHT31;9308;48.550;9.108;2022-09-20T16:19:35;15.94;49.44
18361;SHT31;9308;48.550;9.108;2022-09-20T16:22:03;16.21;49.87
18361;SHT31;9308;48.550;9.108;2022-09-20T16:24:33;15.97;50.32
18361;SHT31;9308;48.550;9.108;2022-09-20T16:27:00;16.00;52.58
18361;SHT31;9308;48.550;9.108;2022-09-20T16:29:26;15.76;50.38
18361;SHT31;9308;48.550;9.108;2022-09-20T16:31:54;15.48;51.13
18361;SHT31;9308;48.550;9.108;2022-09-20T16:34:29;15.65;50.76
18361;SHT31;9308;48.550;9.108;2022-09-20T16:36:58;15.55;51.21
18361;SHT31;9308;48.550;9.108;2022-09-20T16:39:25;15.47;51.99
18361;SHT31;9308;48.550;9.108;2022-09-20T16:41:59;15.65;51.18
18361;SHT31;9308;48.550;9.108;2022-09-20T16:44:31;15.76;51.93
18361;SHT31;9308;48.550;9.108;2022-09-20T16:46:57;15.68;53.41
18361;SHT31;9308;48.550;9.108;2022-09-20T16:49:23;15.52;54.03
18361;SHT31;9308;48.550;9.108;2022-09-20T16:51:51;15.34;53.12
18361;SHT31;9308;48.550;9.108;2022-09-20T16:54:17;15.30;53.59
18361;SHT31;9308;48.550;9.108;2022-09-20T16:56:48;14.83;55.58
18361;SHT31;9308;48.550;9.108;2022-09-20T16:59:16;14.87;55.67
18361;SHT31;9308;48.550;9.108;2022-09-20T17:01:42;14.73;57.33
18361;SHT31;9308;48.550;9.108;2022-09-20T17:04:09;14.77;56.03
18361;SHT31;9308;48.550;9.108;2022-09-20T17:06:36;14.41;58.36
18361;SHT31;9308;48.550;9.108;2022-09-20T17:09:03;14.44;58.90
18361;SHT31;9308;48.550;9.108;2022-09-20T17:11:31;14.22;58.99
18361;SHT31;9308;48.550;9.108;2022-09-20T17:13:57;14.13;59.61
18361;SHT31;9308;48.550;9.108;2022-09-20T17:16:29;14.00;58.61
18361;SHT31;9308;48.550;9.108;2022-09-20T17:19:08;13.87;60.02
18361;SHT31;9308;48.550;9.108;2022-09-20T17:21:40;13.79;60.65
18361;SHT31;9308;48.550;9.108;2022-09-20T17:24:10;13.73;60.79
18361;SHT31;9308;48.550;9.108;2022-09-20T17:26:37;13.54;59.92
18361;SHT31;9308;48.550;9.108;2022-09-20T17:29:06;13.61;59.94
18361;SHT31;9308;48.550;9.108;2022-09-20T17:31:34;13.45;60.97
18361;SHT31;9308;48.550;9.108;2022-09-20T17:34:01;13.30;60.22
18361;SHT31;9308;48.550;9.108;2022-09-20T17:36:31;13.13;61.62
18361;SHT31;9308;48.550;9.108;2022-09-20T17:38:58;13.08;61.32
18361;SHT31;9308;48.550;9.108;2022-09-20T17:41:25;12.95;61.81
18361;SHT31;9308;48.550;9.108;2022-09-20T17:43:56;12.95;63.26
18361;SHT31;9308;48.550;9.108;2022-09-20T17:46:27;12.90;63.64
18361;SHT31;9308;48.550;9.108;2022-09-20T17:48:57;12.83;63.66
18361;SHT31;9308;48.550;9.108;2022-09-20T17:51:27;12.76;63.66
18361;SHT31;9308;48.550;9.108;2022-09-20T17:53:53;12.68;64.06
18361;SHT31;9308;48.550;9.108;2022-09-20T17:56:20;12.90;62.85
18361;SHT31;9308;48.550;9.108;2022-09-20T17:58:48;13.00;62.73
18361;SHT31;9308;48.550;9.108;2022-09-20T18:01:16;12.99;63.86
18361;SHT31;9308;48.550;9.108;2022-09-20T18:03:44;12.93;63.36
18361;SHT31;9308;48.550;9.108;2022-09-20T18:06:29;13.10;62.85
18361;SHT31;9308;48.550;9.108;2022-09-20T18:09:00;13.20;61.64
18361;SHT31;9308;48.550;9.108;2022-09-20T18:11:47;13.04;61.65
18361;SHT31;9308;48.550;9.108;2022-09-20T18:14:15;13.04;61.54
18361;SHT31;9308;48.550;9.108;2022-09-20T18:16:41;12.93;61.68
18361;SHT31;9308;48.550;9.108;2022-09-20T18:19:09;12.84;62.40
18361;SHT31;9308;48.550;9.108;2022-09-20T18:21:36;12.95;61.75
18361;SHT31;9308;48.550;9.108;2022-09-20T18:24:07;12.84;62.08
18361;SHT31;9308;48.550;9.108;2022-09-20T18:26:33;12.96;61.49
18361;SHT31;9308;48.550;9.108;2022-09-20T18:31:31;12.99;61.97
18361;SHT31;9308;48.550;9.108;2022-09-20T18:33:59;12.90;62.90
18361;SHT31;9308;48.550;9.108;2022-09-20T18:36:26;13.04;62.52
18361;SHT31;9308;48.550;9.108;2022-09-20T18:38:53;12.68;63.59
18361;SHT31;9308;48.550;9.108;2022-09-20T18:41:29;12.76;63.98
18361;SHT31;9308;48.550;9.108;2022-09-20T18:43:59;12.84;62.82
18361;SHT31;9308;48.550;9.108;2022-09-20T18:46:27;12.86;62.80
18361;SHT31;9308;48.550;9.108;2022-09-20T18:48:56;13.03;63.11
18361;SHT31;9308;48.550;9.108;2022-09-20T18:51:25;13.02;62.88
18361;SHT31;9308;48.550;9.108;2022-09-20T18:53:53;12.89;63.34
18361;SHT31;9308;48.550;9.108;2022-09-20T18:56:22;12.72;64.19
18361;SHT31;9308;48.550;9.108;2022-09-20T18:58:53;12.66;65.30
18361;SHT31;9308;48.550;9.108;2022-09-20T19:01:38;12.72;64.45
18361;SHT31;9308;48.550;9.108;2022-09-20T19:06:43;12.99;63.57
18361;SHT31;9308;48.550;9.108;2022-09-20T19:12:31;12.53;66.33
18361;SHT31;9308;48.550;9.108;2022-09-20T19:17:43;12.34;67.56
18361;SHT31;9308;48.550;9.108;2022-09-20T19:20:33;12.34;67.31
18361;SHT31;9308;48.550;9.108;2022-09-20T19:23:34;12.46;67.09
18361;SHT31;9308;48.550;9.108;2022-09-20T19:28:33;12.66;64.90
18361;SHT31;9308;48.550;9.108;2022-09-20T19:30:59;12.68;64.93
18361;SHT31;9308;48.550;9.108;2022-09-20T19:33:24;12.72;65.15
18361;SHT31;9308;48.550;9.108;2022-09-20T19:35:50;12.73;65.65
18361;SHT31;9308;48.550;9.108;2022-09-20T19:38:33;12.77;65.22
18361;SHT31;9308;48.550;9.108;2022-09-20T19:41:17;12.59;65.43
18361;SHT31;9308;48.550;9.108;2022-09-20T19:44:02;12.68;64.83
18361;SHT31;9308;48.550;9.108;2022-09-20T19:46:42;12.59;64.81
18361;SHT31;9308;48.550;9.108;2022-09-20T19:51:39;12.52;65.45
18361;SHT31;9308;48.550;9.108;2022-09-20T19:54:09;12.48;65.33
18361;SHT31;9308;48.550;9.108;2022-09-20T19:59:12;12.62;64.61
18361;SHT31;9308;48.550;9.108;2022-09-20T20:01:38;12.66;65.12
18361;SHT31;9308;48.550;9.108;2022-09-20T20:04:07;12.65;64.04
18361;SHT31;9308;48.550;9.108;2022-09-20T20:06:37;12.70;63.99
18361;SHT31;9308;48.550;9.108;2022-09-20T20:20:14;12.63;64.02
18361;SHT31;9308;48.550;9.108;2022-09-20T20:25:32;12.41;64.30
18361;SHT31;9308;48.550;9.108;2022-09-20T20:27:59;12.31;65.03
18361;SHT31;9308;48.550;9.108;2022-09-20T20:30:25;12.30;65.03
18361;SHT31;9308;48.550;9.108;2022-09-20T20:32:54;12.35;65.84
18361;SHT31;9308;48.550;9.108;2022-09-20T20:35:23;12.41;64.92
18361;SHT31;9308;48.550;9.108;2022-09-20T20:37:50;12.45;65.33
18361;SHT31;9308;48.550;9.108;2022-09-20T20:40:15;12.46;64.78
18361;SHT31;9308;48.550;9.108;2022-09-20T20:42:41;12.42;66.00
18361;SHT31;9308;48.550;9.108;2022-09-20T20:45:08;12.49;65.66
18361;SHT31;9308;48.550;9.108;2022-09-20T20:47:33;12.58;65.02
18361;SHT31;9308;48.550;9.108;2022-09-20T20:49:59;12.62;64.61
18361;SHT31;9308;48.550;9.108;2022-09-20T20:52:24;12.62;64.75
18361;SHT31;9308;48.550;9.108;2022-09-20T20:54:50;12.63;64.25
18361;SHT31;9308;48.550;9.108;2022-09-20T20:57:15;12.53;65.04